Time,TemperatureF,DewpointF,PressureIn,WindDirection,WindDirectionDegrees,WindSpeedMPH,WindSpeedGustMPH,Humidity,HourlyPrecipIn,Conditions,Clouds,dailyrainin,SoftwareType,DateUTC
2013-01-26 00:14:00,31.9,30.6,30.26,ENE,59,0.0,0.0,95,0.00,,,0.00,VWS V14.01,2013-01-26 06:14:00,
2013-01-26 00:29:00,31.4,30.1,30.25,ENE,60,0.0,0.0,95,0.00,,,0.00,VWS V14.01,2013-01-26 06:29:00,
2013-01-26 00:44:00,31.4,30.1,30.26,ENE,60,0.0,0.0,95,0.00,,,0.00,VWS V14.01,2013-01-26 06:44:00,
2013-01-26 00:59:00,31.2,29.9,30.26,ENE,60,0.0,0.0,95,0.00,,,0.00,VWS V14.01,2013-01-26 06:59:00,
2013-01-26 01:14:00,30.8,29.5,30.27,ENE,60,0.0,0.0,95,0.00,,,0.00,VWS V14.01,2013-01-26 07:14:00,
2013-01-26 01:29:00,30.8,29.5,30.27,ENE,59,0.0,0.0,95,0.00,,,0.00,VWS V14.01,2013-01-26 07:29:00,
2013-01-26 01:44:00,30.8,29.5,30.26,ENE,59,0.0,0.0,95,0.00,,,0.00,VWS V14.01,2013-01-26 07:44:00,
2013-01-26 01:59:00,30.7,29.4,30.27,ENE,60,0.0,0.0,95,0.00,,,0.00,VWS V14.01,2013-01-26 07:59:00,
2013-01-26 02:14:00,30.0,28.7,30.27,ENE,60,0.0,0.0,95,0.00,,,0.00,VWS V14.01,2013-01-26 08:14:00,
2013-01-26 02:29:00,30.0,29.0,30.27,ENE,59,0.0,0.0,96,0.00,,,0.00,VWS V14.01,2013-01-26 08:29:00,
2013-01-26 02:44:00,29.4,28.1,30.27,ENE,60,0.0,0.0,95,0.00,,,0.00,VWS V14.01,2013-01-26 08:44:00,
2013-01-26 02:59:00,29.3,28.3,30.27,ENE,60,0.0,0.0,96,0.00,,,0.00,VWS V14.01,2013-01-26 08:59:00,
2013-01-26 03:14:00,29.4,28.4,30.26,ENE,60,0.0,0.0,96,0.00,,,0.00,VWS V14.01,2013-01-26 09:14:00,
2013-01-26 03:29:00,29.3,28.3,30.27,ENE,60,0.0,0.0,96,0.00,,,0.00,VWS V14.01,2013-01-26 09:29:00,
2013-01-26 03:44:00,29.4,28.4,30.27,ENE,60,0.0,0.0,96,0.00,,,0.00,VWS V14.01,2013-01-26 09:44:00,
2013-01-26 03:59:00,29.7,28.7,30.27,ENE,60,0.0,0.0,96,0.00,,,0.00,VWS V14.01,2013-01-26 09:59:00,
2013-01-26 04:14:00,29.7,28.7,30.28,ENE,60,0.0,0.0,96,0.00,,,0.00,VWS V14.01,2013-01-26 10:14:00,
2013-01-26 04:29:00,30.1,29.1,30.28,ENE,59,0.0,0.0,96,0.00,,,0.00,VWS V14.01,2013-01-26 10:29:00,
2013-01-26 04:44:00,30.1,29.1,30.28,ENE,59,0.0,0.0,96,0.00,,,0.00,VWS V14.01,2013-01-26 10:44:00,
2013-01-26 04:59:00,29.9,28.9,30.28,ENE,59,0.0,0.0,96,0.00,,,0.00,VWS V14.01,2013-01-26 10:59:00,
2013-01-26 05:14:00,30.1,29.1,30.29,ENE,60,0.0,0.0,96,0.00,,,0.00,VWS V14.01,2013-01-26 11:14:00,
2013-01-26 05:29:00,29.8,28.8,30.28,ENE,60,0.0,0.0,96,0.00,,,0.00,VWS V14.01,2013-01-26 11:29:00,
2013-01-26 05:44:00,29.9,28.9,30.28,ENE,60,0.0,0.0,96,0.00,,,0.00,VWS V14.01,2013-01-26 11:44:00,
2013-01-26 05:59:00,29.9,28.9,30.28,ENE,59,0.0,0.0,96,0.00,,,0.00,VWS V14.01,2013-01-26 11:59:00,
2013-01-26 06:14:00,30.4,29.4,30.29,ENE,59,0.0,0.0,96,0.00,,,0.00,VWS V14.01,2013-01-26 12:14:00,
2013-01-26 06:29:00,30.8,29.8,30.30,ENE,60,0.0,0.0,96,0.00,,,0.00,VWS V14.01,2013-01-26 12:29:00,
2013-01-26 06:44:00,31.5,30.5,30.30,ENE,60,0.0,0.0,96,0.00,,,0.00,VWS V14.01,2013-01-26 12:44:00,
2013-01-26 06:59:00,32.3,31.5,30.30,East,81,0.0,1.0,97,0.00,,,0.00,VWS V14.01,2013-01-26 12:59:00,
2013-01-26 07:14:00,32.5,31.5,30.31,ENE,70,0.0,0.0,96,0.00,,,0.00,VWS V14.01,2013-01-26 13:14:00,
2013-01-26 07:29:00,32.7,31.7,30.30,ENE,59,0.0,0.0,96,0.00,,,0.00,VWS V14.01,2013-01-26 13:29:00,
2013-01-26 07:44:00,33.1,32.1,30.31,ENE,75,0.0,1.0,96,0.00,,,0.00,VWS V14.01,2013-01-26 13:44:00,
2013-01-26 07:59:00,33.9,32.9,30.32,NE,37,0.0,2.0,96,0.00,,,0.00,VWS V14.01,2013-01-26 13:59:00,
2013-01-26 08:14:00,34.7,33.4,30.32,ENE,76,1.0,3.0,95,0.00,,,0.00,VWS V14.01,2013-01-26 14:14:00,
2013-01-26 08:29:00,35.6,33.8,30.32,ENE,68,1.0,4.0,93,0.00,,,0.00,VWS V14.01,2013-01-26 14:29:00,
2013-01-26 08:44:00,36.6,34.2,30.32,ENE,77,1.0,4.0,91,0.00,,,0.00,VWS V14.01,2013-01-26 14:44:00,
2013-01-26 08:59:00,37.3,34.6,30.32,East,89,1.0,4.0,90,0.00,,,0.00,VWS V14.01,2013-01-26 14:59:00,
2013-01-26 09:14:00,38.2,35.0,30.33,ENE,71,0.0,5.0,88,0.00,,,0.00,VWS V14.01,2013-01-26 15:14:00,
2013-01-26 09:29:00,39.1,35.3,30.34,East,100,2.0,5.0,86,0.00,,,0.00,VWS V14.01,2013-01-26 15:29:00,
2013-01-26 09:44:00,39.9,35.2,30.34,ENE,76,3.0,6.0,83,0.00,,,0.00,VWS V14.01,2013-01-26 15:44:00,
2013-01-26 09:59:00,40.9,35.2,30.35,ENE,58,2.0,6.0,80,0.00,,,0.00,VWS V14.01,2013-01-26 15:59:00,
2013-01-26 10:14:00,42.3,35.6,30.35,NE,39,2.0,7.0,77,0.00,,,0.00,VWS V14.01,2013-01-26 16:14:00,
2013-01-26 10:29:00,44.4,33.8,30.35,ENE,72,8.0,10.0,66,0.01,,,0.01,VWS V14.01,2013-01-26 16:29:00,
2013-01-26 10:44:00,46.3,34.0,30.34,East,85,4.0,9.0,62,0.01,,,0.01,VWS V14.01,2013-01-26 16:44:00,
2013-01-26 10:59:00,47.2,32.8,30.34,East,91,3.0,10.0,57,0.01,,,0.01,VWS V14.01,2013-01-26 16:59:00,
2013-01-26 11:14:00,48.4,33.4,30.33,ENE,62,2.0,8.0,56,0.01,,,0.01,VWS V14.01,2013-01-26 17:14:00,
2013-01-26 11:29:00,49.5,33.6,30.33,East,98,6.0,6.0,54,0.01,,,0.01,VWS V14.01,2013-01-26 17:29:00,
2013-01-26 11:44:00,49.7,32.3,30.33,ESE,108,1.0,7.0,51,0.00,,,0.01,VWS V14.01,2013-01-26 17:44:00,
2013-01-26 11:59:00,50.9,31.9,30.33,NNE,21,2.0,7.0,48,0.00,,,0.01,VWS V14.01,2013-01-26 17:59:00,
2013-01-26 12:14:00,51.5,32.0,30.32,ENE,74,3.0,6.0,47,0.00,,,0.01,VWS V14.01,2013-01-26 18:14:00,
2013-01-26 12:29:00,52.3,32.7,30.31,East,88,4.0,7.0,47,0.00,,,0.01,VWS V14.01,2013-01-26 18:29:00,
2013-01-26 12:44:00,52.4,31.7,30.31,ESE,123,0.0,6.0,45,0.00,,,0.01,VWS V14.01,2013-01-26 18:44:00,
2013-01-26 12:59:00,52.6,31.9,30.30,East,99,2.0,6.0,45,0.00,,,0.01,VWS V14.01,2013-01-26 18:59:00,
2013-01-26 13:14:00,53.6,32.2,30.29,NNE,20,2.0,4.0,44,0.00,,,0.01,VWS V14.01,2013-01-26 19:14:00,
2013-01-26 13:29:00,53.9,30.1,30.29,NE,39,2.0,5.0,40,0.00,,,0.01,VWS V14.01,2013-01-26 19:29:00,
2013-01-26 13:44:00,54.3,29.9,30.29,NNW,348,1.0,5.0,39,0.00,,,0.01,VWS V14.01,2013-01-26 19:44:00,
2013-01-26 13:59:00,54.1,30.9,30.28,ENE,60,2.0,6.0,41,0.00,,,0.01,VWS V14.01,2013-01-26 19:59:00,
2013-01-26 14:14:00,54.5,31.3,30.27,ENE,69,5.0,5.0,41,0.00,,,0.01,VWS V14.01,2013-01-26 20:14:00,
2013-01-26 14:29:00,54.9,30.4,30.28,ENE,74,3.0,8.0,39,0.00,,,0.01,VWS V14.01,2013-01-26 20:29:00,
2013-01-26 14:44:00,54.5,29.4,30.27,ESE,106,3.0,5.0,38,0.00,,,0.01,VWS V14.01,2013-01-26 20:44:00,
2013-01-26 14:59:00,54.8,30.3,30.27,East,100,2.0,4.0,39,0.00,,,0.01,VWS V14.01,2013-01-26 20:59:00,
2013-01-26 15:14:00,54.6,31.4,30.27,East,84,0.0,7.0,41,0.00,,,0.01,VWS V14.01,2013-01-26 21:14:00,
2013-01-26 15:29:00,54.4,33.5,30.27,ENE,65,2.0,6.0,45,0.00,,,0.01,VWS V14.01,2013-01-26 21:29:00,
2013-01-26 15:44:00,54.0,32.6,30.27,ENE,58,2.0,6.0,44,0.00,,,0.01,VWS V14.01,2013-01-26 21:44:00,
2013-01-26 15:59:00,53.6,32.8,30.26,ENE,65,5.0,8.0,45,0.00,,,0.01,VWS V14.01,2013-01-26 21:59:00,
2013-01-26 16:14:00,53.1,32.9,30.27,North,357,3.0,6.0,46,0.00,,,0.01,VWS V14.01,2013-01-26 22:14:00,
2013-01-26 16:29:00,52.7,33.0,30.27,NNE,33,0.0,4.0,47,0.00,,,0.01,VWS V14.01,2013-01-26 22:29:00,
2013-01-26 16:44:00,52.2,33.6,30.26,ENE,70,0.0,4.0,49,0.00,,,0.01,VWS V14.01,2013-01-26 22:44:00,
2013-01-26 16:59:00,51.5,33.0,30.27,ENE,75,1.0,4.0,49,0.00,,,0.01,VWS V14.01,2013-01-26 22:59:00,
2013-01-26 17:14:00,51.1,33.6,30.27,ENE,72,2.0,3.0,51,0.00,,,0.01,VWS V14.01,2013-01-26 23:14:00,
2013-01-26 17:29:00,50.7,33.7,30.27,ENE,70,0.0,4.0,52,0.00,,,0.01,VWS V14.01,2013-01-26 23:29:00,
2013-01-26 17:44:00,50.3,33.8,30.27,ENE,75,0.0,4.0,53,0.00,,,0.01,VWS V14.01,2013-01-26 23:44:00,
2013-01-26 17:59:00,49.8,33.4,30.27,ENE,75,1.0,3.0,53,0.00,,,0.01,VWS V14.01,2013-01-26 23:59:00,
2013-01-26 18:14:00,49.9,32.5,30.27,ENE,60,1.0,5.0,51,0.00,,,0.01,VWS V14.01,2013-01-27 00:14:00,
2013-01-26 18:29:00,49.8,32.4,30.27,ENE,65,2.0,4.0,51,0.00,,,0.01,VWS V14.01,2013-01-27 00:29:00,
2013-01-26 18:44:00,49.5,33.1,30.27,ENE,72,3.0,5.0,53,0.00,,,0.01,VWS V14.01,2013-01-27 00:44:00,
2013-01-26 18:59:00,49.3,33.8,30.28,ENE,77,1.0,5.0,55,0.00,,,0.01,VWS V14.01,2013-01-27 00:59:00,
2013-01-26 19:14:00,49.0,34.0,30.28,ENE,77,2.0,6.0,56,0.00,,,0.01,VWS V14.01,2013-01-27 01:14:00,
2013-01-26 19:29:00,48.8,34.3,30.28,ENE,77,2.0,6.0,57,0.00,,,0.01,VWS V14.01,2013-01-27 01:29:00,
2013-01-26 19:44:00,48.7,34.2,30.28,ENE,71,1.0,7.0,57,0.00,,,0.01,VWS V14.01,2013-01-27 01:44:00,
2013-01-26 19:59:00,48.6,34.5,30.28,ENE,71,2.0,8.0,58,0.00,,,0.01,VWS V14.01,2013-01-27 01:59:00,
2013-01-26 20:14:00,48.5,34.4,30.28,ENE,69,4.0,6.0,58,0.00,,,0.01,VWS V14.01,2013-01-27 02:14:00,
2013-01-26 20:29:00,48.4,34.8,30.28,ENE,58,1.0,6.0,59,0.00,,,0.01,VWS V14.01,2013-01-27 02:29:00,
2013-01-26 20:44:00,48.3,34.7,30.28,East,79,4.0,6.0,59,0.00,,,0.01,VWS V14.01,2013-01-27 02:44:00,
2013-01-26 20:59:00,48.1,34.9,30.27,East,101,3.0,6.0,60,0.00,,,0.01,VWS V14.01,2013-01-27 02:59:00,
2013-01-26 21:14:00,48.1,34.9,30.27,ENE,68,1.0,6.0,60,0.00,,,0.01,VWS V14.01,2013-01-27 03:14:00,
2013-01-26 21:29:00,48.1,34.9,30.27,ENE,72,1.0,5.0,60,0.00,,,0.01,VWS V14.01,2013-01-27 03:29:00,
2013-01-26 21:44:00,48.2,35.0,30.28,ENE,64,1.0,4.0,60,0.00,,,0.01,VWS V14.01,2013-01-27 03:44:00,
2013-01-26 21:59:00,48.2,34.6,30.28,East,85,1.0,5.0,59,0.00,,,0.01,VWS V14.01,2013-01-27 03:59:00,
2013-01-26 22:14:00,48.2,35.0,30.29,East,85,0.0,4.0,60,0.00,,,0.01,VWS V14.01,2013-01-27 04:14:00,
2013-01-26 22:29:00,48.2,35.0,30.28,East,79,1.0,4.0,60,0.00,,,0.01,VWS V14.01,2013-01-27 04:29:00,
2013-01-26 22:44:00,48.2,35.0,30.28,ENE,75,1.0,3.0,60,0.00,,,0.01,VWS V14.01,2013-01-27 04:44:00,
2013-01-26 22:59:00,48.2,35.0,30.28,East,95,2.0,3.0,60,0.00,,,0.01,VWS V14.01,2013-01-27 04:59:00,
2013-01-26 23:14:00,48.1,34.9,30.28,East,79,0.0,5.0,60,0.00,,,0.01,VWS V14.01,2013-01-27 05:14:00,
2013-01-26 23:29:00,48.0,35.2,30.27,ENE,68,2.0,5.0,61,0.00,,,0.01,VWS V14.01,2013-01-27 05:29:00,
2013-01-26 23:44:00,47.9,35.1,30.26,ESE,105,2.0,5.0,61,0.00,,,0.01,VWS V14.01,2013-01-27 05:44:00,
2013-01-26 23:59:00,47.8,34.6,30.27,ENE,76,2.0,5.0,60,0.00,,,0.01,VWS V14.01,2013-01-27 05:59:00,